createdAt,value
2018-07-16T00:00:39.000Z,100285
2018-07-16T00:02:39.000Z,100288
2018-07-16T00:04:39.000Z,100287
2018-07-16T00:06:39.000Z,100293
2018-07-16T00:08:39.000Z,100284
2018-07-16T00:09:39.000Z,100288
2018-07-16T00:11:39.000Z,100285
2018-07-16T00:13:23.000Z,100287
2018-07-16T00:14:39.000Z,100288
2018-07-16T00:15:39.000Z,100289
2018-07-16T00:17:08.000Z,100289
2018-07-16T00:18:39.000Z,100286
2018-07-16T00:20:39.000Z,100285
2018-07-16T00:21:39.000Z,100285
2018-07-16T00:23:38.000Z,100281
2018-07-16T00:24:38.000Z,100281
2018-07-16T00:26:38.000Z,100280
2018-07-16T00:27:38.000Z,100282
2018-07-16T00:29:38.000Z,100273
2018-07-16T00:31:38.000Z,100273
2018-07-16T00:32:38.000Z,100268
2018-07-16T00:34:38.000Z,100267
2018-07-16T00:36:38.000Z,100268
2018-07-16T00:37:38.000Z,100261
2018-07-16T00:39:23.000Z,100258
2018-07-16T00:40:38.000Z,100261
2018-07-16T00:42:38.000Z,100261
2018-07-16T00:43:38.000Z,100259
2018-07-16T00:45:38.000Z,100253
2018-07-16T00:46:38.000Z,100253
2018-07-16T00:47:38.000Z,100251
2018-07-16T00:49:38.000Z,100254
2018-07-16T00:51:38.000Z,100249
2018-07-16T00:53:38.000Z,100250
2018-07-16T00:54:38.000Z,100250
2018-07-16T00:56:38.000Z,100245
2018-07-16T00:58:38.000Z,100245
2018-07-16T01:00:38.000Z,100244
2018-07-16T01:02:38.000Z,100241
2018-07-16T01:03:38.000Z,100242
2018-07-16T01:05:38.000Z,100240
2018-07-16T01:07:38.000Z,100238
2018-07-16T01:09:38.000Z,100239
2018-07-16T01:10:38.000Z,100236
2018-07-16T01:12:38.000Z,100231
2018-07-16T01:13:38.000Z,100233
2018-07-16T01:15:38.000Z,100230
2018-07-16T01:17:23.000Z,100227
2018-07-16T01:18:38.000Z,100229
2018-07-16T01:20:38.000Z,100227
2018-07-16T01:22:23.000Z,100224
2018-07-16T01:23:38.000Z,100218
2018-07-16T01:25:38.000Z,100216
2018-07-16T01:26:38.000Z,100218
2018-07-16T01:28:38.000Z,100221
2018-07-16T01:30:38.000Z,100221
2018-07-16T01:32:38.000Z,100225
2018-07-16T01:33:38.000Z,100221
2018-07-16T01:34:38.000Z,100218
2018-07-16T01:36:38.000Z,100212
2018-07-16T01:38:23.000Z,100215
2018-07-16T01:39:38.000Z,100214
2018-07-16T01:41:23.000Z,100220
2018-07-16T01:42:38.000Z,100220
2018-07-16T01:44:38.000Z,100219
2018-07-16T01:45:38.000Z,100222
2018-07-16T01:47:38.000Z,100222
2018-07-16T01:49:23.000Z,100222
2018-07-16T01:50:38.000Z,100225
2018-07-16T01:51:38.000Z,100226
2018-07-16T01:52:38.000Z,100224
2018-07-16T01:54:38.000Z,100224
2018-07-16T01:55:38.000Z,100217
2018-07-16T01:57:38.000Z,100221
2018-07-16T01:59:38.000Z,100220
2018-07-16T02:01:23.000Z,100218
2018-07-16T02:02:38.000Z,100214
2018-07-16T02:03:38.000Z,100217
2018-07-16T02:04:38.000Z,100208
2018-07-16T02:06:38.000Z,100209
2018-07-16T02:08:38.000Z,100207
2018-07-16T02:10:38.000Z,100208
2018-07-16T02:12:23.000Z,100201
2018-07-16T02:13:38.000Z,100201
2018-07-16T02:15:38.000Z,100201
2018-07-16T02:17:38.000Z,100197
2018-07-16T02:18:38.000Z,100191
2018-07-16T02:19:38.000Z,100197
2018-07-16T02:20:38.000Z,100196
2018-07-16T02:22:38.000Z,100196
2018-07-16T02:24:38.000Z,100198
2018-07-16T02:26:38.000Z,100196
2018-07-16T02:28:38.000Z,100198
2018-07-16T02:29:38.000Z,100194
2018-07-16T02:31:38.000Z,100197
2018-07-16T02:33:38.000Z,100194
2018-07-16T02:35:38.000Z,100196
2018-07-16T02:37:38.000Z,100197
2018-07-16T02:39:23.000Z,100191
2018-07-16T02:40:38.000Z,100195
2018-07-16T02:42:23.000Z,100190
2018-07-16T02:43:23.000Z,100194
2018-07-16T02:44:38.000Z,100196
2018-07-16T02:45:38.000Z,100197
2018-07-16T02:47:38.000Z,100200
2018-07-16T02:49:38.000Z,100203
2018-07-16T02:51:38.000Z,100202
2018-07-16T02:53:38.000Z,100201
2018-07-16T02:55:38.000Z,100202
2018-07-16T02:57:38.000Z,100204
2018-07-16T02:58:38.000Z,100202
2018-07-16T02:59:38.000Z,100196
2018-07-16T03:01:38.000Z,100204
2018-07-16T03:02:38.000Z,100199
2018-07-16T03:04:23.000Z,100202
2018-07-16T03:05:38.000Z,100202
2018-07-16T03:07:38.000Z,100200
2018-07-16T03:08:38.000Z,100199
2018-07-16T03:09:38.000Z,100194
2018-07-16T03:10:38.000Z,100188
2018-07-16T03:11:38.000Z,100190
2018-07-16T03:12:38.000Z,100195
2018-07-16T03:14:38.000Z,100189
2018-07-16T03:16:38.000Z,100185
2018-07-16T03:18:08.000Z,100189
2018-07-16T03:19:38.000Z,100196
2018-07-16T03:21:23.000Z,100199
2018-07-16T03:22:38.000Z,100194
2018-07-16T03:24:38.000Z,100204
2018-07-16T03:26:38.000Z,100197
2018-07-16T03:27:38.000Z,100200
2018-07-16T03:29:38.000Z,100200
2018-07-16T03:30:38.000Z,100205
2018-07-16T03:31:38.000Z,100199
2018-07-16T03:33:38.000Z,100201
2018-07-16T03:34:38.000Z,100198
2018-07-16T03:36:38.000Z,100195
2018-07-16T03:38:08.000Z,100093
2018-07-16T03:39:38.000Z,100192
2018-07-16T03:41:23.000Z,100190
2018-07-16T03:42:38.000Z,100194
2018-07-16T03:44:38.000Z,100195
2018-07-16T03:45:38.000Z,100190
2018-07-16T03:47:38.000Z,100191
2018-07-16T03:49:38.000Z,100192
2018-07-16T03:51:38.000Z,100194
2018-07-16T03:52:38.000Z,100194
2018-07-16T03:54:38.000Z,100192
2018-07-16T03:56:38.000Z,100204
2018-07-16T03:57:38.000Z,100196
2018-07-16T03:59:38.000Z,100197
2018-07-16T04:01:38.000Z,100193
2018-07-16T04:02:38.000Z,100196
2018-07-16T04:03:38.000Z,100193
2018-07-16T04:05:38.000Z,100195
2018-07-16T04:07:23.000Z,100198
2018-07-16T04:08:38.000Z,100197
2018-07-16T04:09:38.000Z,100197
2018-07-16T04:11:38.000Z,100197
2018-07-16T04:13:38.000Z,100189
2018-07-16T04:15:38.000Z,100197
2018-07-16T04:17:38.000Z,100198
2018-07-16T04:18:38.000Z,100195
2018-07-16T04:20:38.000Z,100196
2018-07-16T04:22:38.000Z,100193
2018-07-16T04:23:38.000Z,100195
2018-07-16T04:25:38.000Z,100198
2018-07-16T04:26:38.000Z,100197
2018-07-16T04:28:23.000Z,100190
2018-07-16T04:29:38.000Z,100200
2018-07-16T04:30:38.000Z,100204
2018-07-16T04:32:38.000Z,100205
2018-07-16T04:34:38.000Z,100206
2018-07-16T04:36:38.000Z,100205
2018-07-16T04:38:38.000Z,100206
2018-07-16T04:40:38.000Z,100206
2018-07-16T04:42:08.000Z,100203
2018-07-16T04:43:38.000Z,100201
2018-07-16T04:45:08.000Z,100203
2018-07-16T04:46:38.000Z,100209
2018-07-16T04:48:38.000Z,100201
2018-07-16T04:50:38.000Z,100200
2018-07-16T04:52:38.000Z,100212
2018-07-16T04:53:38.000Z,100206
2018-07-16T04:55:38.000Z,100201
2018-07-16T04:56:38.000Z,100204
2018-07-16T04:58:08.000Z,100203
2018-07-16T04:59:38.000Z,100202
2018-07-16T05:01:38.000Z,100197
2018-07-16T05:03:38.000Z,100200
2018-07-16T05:05:38.000Z,100200
2018-07-16T05:07:23.000Z,100204
2018-07-16T05:08:23.000Z,100196
2018-07-16T05:09:38.000Z,100201
2018-07-16T05:11:38.000Z,100203
2018-07-16T05:13:38.000Z,100201
2018-07-16T05:15:38.000Z,100201
2018-07-16T05:17:38.000Z,100206
2018-07-16T05:18:38.000Z,100212
2018-07-16T05:20:23.000Z,100218
2018-07-16T05:21:38.000Z,100215
2018-07-16T05:23:38.000Z,100212
2018-07-16T05:25:38.000Z,100209
2018-07-16T05:27:23.000Z,100207
2018-07-16T05:28:38.000Z,100209
2018-07-16T05:30:38.000Z,100210
2018-07-16T05:32:38.000Z,100206
2018-07-16T05:34:38.000Z,100195
2018-07-16T05:35:38.000Z,100194
2018-07-16T05:37:38.000Z,100201
2018-07-16T05:39:38.000Z,100197
2018-07-16T05:40:38.000Z,100191
2018-07-16T05:41:38.000Z,100190
2018-07-16T05:42:38.000Z,100189
2018-07-16T05:44:38.000Z,100187
2018-07-16T05:46:38.000Z,100195
2018-07-16T05:47:38.000Z,100189
2018-07-16T05:49:38.000Z,100193
2018-07-16T05:51:38.000Z,100192
2018-07-16T05:52:38.000Z,100199
2018-07-16T05:54:38.000Z,100195
2018-07-16T05:59:38.000Z,100190
2018-07-16T06:01:24.000Z,100192
2018-07-16T06:03:24.000Z,100183
2018-07-16T06:05:24.000Z,100184
2018-07-16T06:07:24.000Z,100181
2018-07-16T06:09:09.000Z,100175
2018-07-16T06:10:24.000Z,100174
2018-07-16T06:11:24.000Z,100176
2018-07-16T06:12:24.000Z,100179
2018-07-16T06:14:24.000Z,100175
2018-07-16T06:16:24.000Z,100182
2018-07-16T06:18:24.000Z,100176
2018-07-16T06:20:24.000Z,100181
2018-07-16T06:21:24.000Z,100178
2018-07-16T06:23:24.000Z,100176
2018-07-16T06:25:24.000Z,100180
2018-07-16T06:26:24.000Z,100177
2018-07-16T06:28:24.000Z,100170
2018-07-16T06:29:24.000Z,100171
2018-07-16T06:31:09.000Z,100172
2018-07-16T06:32:24.000Z,100174
2018-07-16T06:33:24.000Z,100172
2018-07-16T06:35:24.000Z,100174
2018-07-16T06:36:24.000Z,100172
2018-07-16T06:38:24.000Z,100171
2018-07-16T06:39:24.000Z,100172
2018-07-16T06:41:24.000Z,100176
2018-07-16T06:43:24.000Z,100174
2018-07-16T06:44:24.000Z,100176
2018-07-16T06:45:24.000Z,100174
2018-07-16T06:47:09.000Z,100174
2018-07-16T06:48:24.000Z,100177
2018-07-16T06:50:09.000Z,100175
2018-07-16T06:51:24.000Z,100173
2018-07-16T06:53:24.000Z,100179
2018-07-16T06:55:24.000Z,100171
2018-07-16T06:56:24.000Z,100180
2018-07-16T06:58:09.000Z,100173
2018-07-16T06:59:24.000Z,100176
2018-07-16T07:01:24.000Z,100176
2018-07-16T07:02:24.000Z,100172
2018-07-16T07:04:24.000Z,100175
2018-07-16T07:06:24.000Z,100171
2018-07-16T07:08:24.000Z,100169
2018-07-16T07:10:24.000Z,100165
2018-07-16T07:11:24.000Z,100169
2018-07-16T07:12:24.000Z,100165
2018-07-16T07:14:09.000Z,100165
2018-07-16T07:15:24.000Z,100163
2018-07-16T07:17:24.000Z,100159
2018-07-16T07:19:24.000Z,100164
2018-07-16T07:20:24.000Z,100162
2018-07-16T07:22:24.000Z,100169
2018-07-16T07:24:24.000Z,100161
2018-07-16T07:26:24.000Z,100157
2018-07-16T07:28:24.000Z,100161
2018-07-16T07:29:24.000Z,100161
2018-07-16T07:31:24.000Z,100161
2018-07-16T07:32:24.000Z,100160
2018-07-16T07:34:24.000Z,100166
2018-07-16T07:36:09.000Z,100160
2018-07-16T07:37:24.000Z,100161
2018-07-16T07:39:24.000Z,100164
2018-07-16T07:40:24.000Z,100161
2018-07-16T07:41:24.000Z,100161
2018-07-16T07:43:24.000Z,100156
2018-07-16T07:45:09.000Z,100164
2018-07-16T07:46:24.000Z,100152
2018-07-16T07:47:24.000Z,100160
2018-07-16T07:49:24.000Z,100159
2018-07-16T07:51:09.000Z,100158
2018-07-16T07:52:24.000Z,100156
2018-07-16T07:54:24.000Z,100154
2018-07-16T07:56:24.000Z,100151
2018-07-16T07:57:24.000Z,100152
2018-07-16T07:59:24.000Z,100143
2018-07-16T08:00:24.000Z,100148
2018-07-16T08:02:24.000Z,100143
2018-07-16T08:03:24.000Z,100142
2018-07-16T08:04:24.000Z,100140
2018-07-16T08:06:24.000Z,100140
2018-07-16T08:08:09.000Z,100144
2018-07-16T08:09:24.000Z,100135
2018-07-16T08:10:24.000Z,100140
2018-07-16T08:12:09.000Z,100143
2018-07-16T08:13:24.000Z,100140
2018-07-16T08:14:24.000Z,100141
2018-07-16T08:15:24.000Z,100135
2018-07-16T08:17:09.000Z,100139
2018-07-16T08:18:24.000Z,100140
2018-07-16T08:19:24.000Z,100134
2018-07-16T08:21:24.000Z,100135
2018-07-16T08:23:24.000Z,100135
2018-07-16T08:25:24.000Z,100137
2018-07-16T08:26:24.000Z,100129
2018-07-16T08:28:24.000Z,100132
2018-07-16T08:29:24.000Z,100133
2018-07-16T08:31:24.000Z,100133
2018-07-16T08:33:24.000Z,100126
2018-07-16T08:34:24.000Z,100127
2018-07-16T08:36:24.000Z,100128
2018-07-16T08:37:24.000Z,100131
2018-07-16T08:38:24.000Z,100125
2018-07-16T08:40:24.000Z,100125
2018-07-16T08:42:24.000Z,100128
2018-07-16T08:44:24.000Z,100122
2018-07-16T08:46:24.000Z,100131
2018-07-16T08:48:24.000Z,100126
2018-07-16T08:50:24.000Z,100129
2018-07-16T08:51:24.000Z,100126
2018-07-16T08:52:24.000Z,100129
2018-07-16T08:53:24.000Z,100126
2018-07-16T08:55:09.000Z,100125
2018-07-16T08:56:24.000Z,100123
2018-07-16T08:58:24.000Z,100129
2018-07-16T09:00:24.000Z,100127
2018-07-16T09:01:24.000Z,100128
2018-07-16T09:03:24.000Z,100134
2018-07-16T09:05:24.000Z,100137
2018-07-16T09:07:24.000Z,100135
2018-07-16T09:09:24.000Z,100134
2018-07-16T09:10:24.000Z,100127
2018-07-16T09:12:24.000Z,100131
2018-07-16T09:13:24.000Z,100131
2018-07-16T09:14:24.000Z,100131
2018-07-16T09:16:09.000Z,100139
2018-07-16T09:17:24.000Z,100134
2018-07-16T09:19:09.000Z,100135
2018-07-16T09:20:09.000Z,100136
2018-07-16T09:21:24.000Z,100128
2018-07-16T09:23:24.000Z,100125
2018-07-16T09:24:24.000Z,100132
2018-07-16T09:25:24.000Z,100128
2018-07-16T09:26:24.000Z,100120
2018-07-16T09:28:24.000Z,100117
2018-07-16T09:29:24.000Z,100121
2018-07-16T09:30:24.000Z,100127
2018-07-16T09:32:09.000Z,100129
2018-07-16T09:33:24.000Z,100130
2018-07-16T09:34:24.000Z,100132
2018-07-16T09:36:24.000Z,100125
2018-07-16T09:37:24.000Z,100121
2018-07-16T09:39:24.000Z,100122
2018-07-16T09:40:24.000Z,100124
2018-07-16T09:42:24.000Z,100124
2018-07-16T09:44:09.000Z,100124
2018-07-16T09:45:24.000Z,100120
2018-07-16T09:47:24.000Z,100120
2018-07-16T09:49:24.000Z,100125
2018-07-16T09:51:24.000Z,100123
2018-07-16T09:53:24.000Z,100117
2018-07-16T09:55:24.000Z,100115
2018-07-16T09:57:24.000Z,100124
2018-07-16T09:58:24.000Z,100121
2018-07-16T10:00:08.000Z,100115
2018-07-16T10:01:24.000Z,100119
2018-07-16T10:03:08.000Z,100119
2018-07-16T10:04:24.000Z,100118
2018-07-16T10:06:24.000Z,100121
2018-07-16T10:08:24.000Z,100118
2018-07-16T10:10:24.000Z,100111
2018-07-16T10:11:24.000Z,100113
2018-07-16T10:13:24.000Z,100115
2018-07-16T10:14:24.000Z,100118
2018-07-16T10:15:24.000Z,100117
2018-07-16T10:16:24.000Z,100118
2018-07-16T10:18:24.000Z,100108
2018-07-16T10:20:24.000Z,100111
2018-07-16T10:22:24.000Z,100107
2018-07-16T10:24:24.000Z,100113
2018-07-16T10:26:24.000Z,100106
2018-07-16T10:28:24.000Z,100109
2018-07-16T10:29:24.000Z,100107
2018-07-16T10:31:24.000Z,100107
2018-07-16T10:32:24.000Z,100105
2018-07-16T10:33:24.000Z,100110
2018-07-16T10:35:24.000Z,100114
2018-07-16T10:37:24.000Z,100106
2018-07-16T10:39:09.000Z,100044
2018-07-16T10:40:24.000Z,100106
2018-07-16T10:42:08.000Z,100101
2018-07-16T10:43:24.000Z,100107
2018-07-16T10:45:24.000Z,100094
2018-07-16T10:46:24.000Z,100094
2018-07-16T10:48:24.000Z,100089
2018-07-16T10:49:24.000Z,100090
2018-07-16T10:51:24.000Z,100085
2018-07-16T10:52:24.000Z,100088
2018-07-16T10:54:08.000Z,100086
2018-07-16T10:55:24.000Z,100085
2018-07-16T10:56:24.000Z,100068
2018-07-16T10:58:24.000Z,100080
2018-07-16T11:00:24.000Z,100081
2018-07-16T11:02:24.000Z,100083
2018-07-16T11:03:24.000Z,100073
2018-07-16T11:05:24.000Z,100078
2018-07-16T11:07:24.000Z,100077
2018-07-16T11:09:24.000Z,100067
2018-07-16T11:11:24.000Z,100079
2018-07-16T11:12:24.000Z,100073
2018-07-16T11:14:24.000Z,100075
2018-07-16T11:15:24.000Z,100076
2018-07-16T11:17:24.000Z,100071
2018-07-16T11:19:24.000Z,100067
2018-07-16T11:21:24.000Z,100064
2018-07-16T11:23:24.000Z,100059
2018-07-16T11:25:24.000Z,100062
2018-07-16T11:26:24.000Z,100058
2018-07-16T11:28:24.000Z,100052
2018-07-16T11:29:24.000Z,100052
2018-07-16T11:31:24.000Z,100051
2018-07-16T11:33:08.000Z,100053
2018-07-16T11:34:24.000Z,100048
2018-07-16T11:36:24.000Z,100050
2018-07-16T11:38:24.000Z,100051
2018-07-16T11:40:24.000Z,100051
2018-07-16T11:41:24.000Z,100051
2018-07-16T11:43:24.000Z,100048
2018-07-16T11:44:24.000Z,100049
2018-07-16T11:45:24.000Z,100043
2018-07-16T11:47:24.000Z,100047
2018-07-16T11:49:24.000Z,100048
2018-07-16T11:51:24.000Z,100044
2018-07-16T11:53:24.000Z,100042
2018-07-16T11:55:24.000Z,100040
2018-07-16T11:57:24.000Z,100042
2018-07-16T11:59:24.000Z,100042
2018-07-16T12:00:24.000Z,100041
2018-07-16T12:02:24.000Z,100040
2018-07-16T12:04:24.000Z,100037
2018-07-16T12:06:24.000Z,100031
2018-07-16T12:08:09.000Z,100034
2018-07-16T12:09:24.000Z,100030
2018-07-16T12:11:24.000Z,100033
2018-07-16T12:13:24.000Z,100030
2018-07-16T12:14:24.000Z,100032
2018-07-16T12:16:24.000Z,100030
2018-07-16T12:18:09.000Z,100024
2018-07-16T12:19:24.000Z,100025
2018-07-16T12:21:24.000Z,100017
2018-07-16T12:22:24.000Z,100016
2018-07-16T12:23:24.000Z,100016
2018-07-16T12:25:24.000Z,100015
2018-07-16T12:27:24.000Z,100018
2018-07-16T12:29:24.000Z,100015
2018-07-16T12:30:24.000Z,100016
2018-07-16T12:31:24.000Z,100013
2018-07-16T12:33:24.000Z,100011
2018-07-16T12:35:24.000Z,100003
2018-07-16T12:37:09.000Z,100001
2018-07-16T12:38:24.000Z,100012
2018-07-16T12:40:24.000Z,100004
2018-07-16T12:41:24.000Z,100005
2018-07-16T12:43:09.000Z,100000
2018-07-16T12:44:24.000Z,99995
2018-07-16T12:45:24.000Z,99995
2018-07-16T12:47:24.000Z,99993
2018-07-16T12:49:24.000Z,99988
2018-07-16T12:50:24.000Z,99982
2018-07-16T12:52:24.000Z,99989
2018-07-16T12:54:24.000Z,99981
2018-07-16T12:56:24.000Z,99983
2018-07-16T12:58:09.000Z,99981
2018-07-16T12:59:24.000Z,99974
2018-07-16T13:00:24.000Z,99974
2018-07-16T13:02:24.000Z,99973
2018-07-16T13:04:24.000Z,99971
2018-07-16T13:05:24.000Z,99971
2018-07-16T13:07:24.000Z,99960
2018-07-16T13:09:24.000Z,99964
2018-07-16T13:10:24.000Z,99962
2018-07-16T13:12:24.000Z,99964
2018-07-16T13:14:24.000Z,99960
2018-07-16T13:16:24.000Z,99956
2018-07-16T13:17:24.000Z,99953
2018-07-16T13:19:24.000Z,99952
2018-07-16T13:20:24.000Z,99948
2018-07-16T13:22:09.000Z,99949
2018-07-16T13:23:09.000Z,99947
2018-07-16T13:24:24.000Z,99952
2018-07-16T13:26:24.000Z,99941
2018-07-16T13:28:24.000Z,99952
2018-07-16T13:29:24.000Z,99946
2018-07-16T13:30:24.000Z,99949
2018-07-16T13:32:24.000Z,99939
2018-07-16T13:34:24.000Z,99939
2018-07-16T13:36:24.000Z,99937
2018-07-16T13:38:24.000Z,99931
2018-07-16T13:40:24.000Z,99928
2018-07-16T13:42:24.000Z,99928
2018-07-16T13:43:54.000Z,99928
2018-07-16T13:45:24.000Z,99927
2018-07-16T13:46:24.000Z,99927
2018-07-16T13:48:24.000Z,99924
2018-07-16T13:49:24.000Z,99925
2018-07-16T13:50:24.000Z,99923
2018-07-16T13:51:24.000Z,99923
2018-07-16T13:53:24.000Z,99924
2018-07-16T13:55:24.000Z,99913
2018-07-16T13:57:24.000Z,99920
2018-07-16T13:59:24.000Z,99923
2018-07-16T14:01:24.000Z,99924
2018-07-16T14:03:09.000Z,99922
2018-07-16T14:04:24.000Z,99920
2018-07-16T14:06:09.000Z,99925
2018-07-16T14:07:24.000Z,99919
2018-07-16T14:09:24.000Z,99915
2018-07-16T14:11:09.000Z,99915
2018-07-16T14:12:24.000Z,99912
2018-07-16T14:14:24.000Z,99913
2018-07-16T14:16:09.000Z,99913
2018-07-16T14:17:24.000Z,99906
2018-07-16T14:19:24.000Z,99912
2018-07-16T14:21:24.000Z,99915
2018-07-16T14:22:24.000Z,99915
2018-07-16T14:23:24.000Z,99916
2018-07-16T14:25:24.000Z,99910
2018-07-16T14:27:24.000Z,99905
2018-07-16T14:29:24.000Z,99905
2018-07-16T14:30:24.000Z,99901
2018-07-16T14:32:24.000Z,99904
2018-07-16T14:34:09.000Z,99908
2018-07-16T14:35:24.000Z,99905
2018-07-16T14:36:24.000Z,99903
2018-07-16T14:38:09.000Z,99903
2018-07-16T14:39:24.000Z,99900
2018-07-16T14:41:24.000Z,99898
2018-07-16T14:43:24.000Z,99898
2018-07-16T14:44:24.000Z,99899
2018-07-16T14:46:24.000Z,99889
2018-07-16T14:48:24.000Z,99899
2018-07-16T14:50:24.000Z,99897
2018-07-16T14:52:24.000Z,99901
2018-07-16T14:54:09.000Z,99902
2018-07-16T14:55:24.000Z,99899
2018-07-16T14:56:24.000Z,99900
2018-07-16T14:58:24.000Z,99894
2018-07-16T15:00:24.000Z,99886
2018-07-16T15:02:24.000Z,99886
2018-07-16T15:04:09.000Z,99884
2018-07-16T15:05:24.000Z,99887
2018-07-16T15:07:24.000Z,99890
2018-07-16T15:09:09.000Z,99884
2018-07-16T15:10:24.000Z,99891
2018-07-16T15:11:24.000Z,99888
2018-07-16T15:13:24.000Z,99894
2018-07-16T15:15:25.000Z,99881
2018-07-16T15:16:25.000Z,99884
2018-07-16T15:18:25.000Z,99879
2018-07-16T15:19:25.000Z,99880
2018-07-16T15:21:25.000Z,99879
2018-07-16T15:23:25.000Z,99882
2018-07-16T15:25:25.000Z,99880
2018-07-16T15:27:25.000Z,99878
2018-07-16T15:29:25.000Z,99885
2018-07-16T15:31:25.000Z,99884
2018-07-16T15:32:25.000Z,99876
2018-07-16T15:34:25.000Z,99882
2018-07-16T15:36:25.000Z,99881
2018-07-16T15:37:25.000Z,99876
2018-07-16T15:39:25.000Z,99884
2018-07-16T15:41:25.000Z,99879
2018-07-16T15:43:09.000Z,99877
2018-07-16T15:44:25.000Z,99878
2018-07-16T15:46:25.000Z,99879
2018-07-16T15:47:25.000Z,99876
2018-07-16T15:49:09.000Z,99877
2018-07-16T15:50:25.000Z,99881
2018-07-16T15:51:25.000Z,99877
2018-07-16T15:52:25.000Z,99874
2018-07-16T15:54:25.000Z,99877
2018-07-16T15:55:25.000Z,99880
2018-07-16T15:56:25.000Z,99878
2018-07-16T15:58:09.000Z,99872
2018-07-16T15:59:25.000Z,99874
2018-07-16T16:01:09.000Z,99867
2018-07-16T16:02:25.000Z,99872
2018-07-16T16:03:25.000Z,99868
2018-07-16T16:05:09.000Z,99867
2018-07-16T16:06:25.000Z,99863
2018-07-16T16:08:25.000Z,99866
2018-07-16T16:09:25.000Z,99864
2018-07-16T16:11:25.000Z,99861
2018-07-16T16:13:25.000Z,99868
2018-07-16T16:14:25.000Z,99866
2018-07-16T16:15:25.000Z,99865
2018-07-16T16:17:25.000Z,99868
2018-07-16T16:18:24.000Z,99869
2018-07-16T16:19:24.000Z,99868
2018-07-16T16:20:24.000Z,99866
2018-07-16T16:22:24.000Z,99870
2018-07-16T16:23:24.000Z,99864
2018-07-16T16:25:24.000Z,99865
2018-07-16T16:27:24.000Z,99865
2018-07-16T16:29:24.000Z,99860
2018-07-16T16:31:24.000Z,99868
2018-07-16T16:33:08.000Z,99865
2018-07-16T16:34:24.000Z,99869
2018-07-16T16:36:08.000Z,99863
2018-07-16T16:37:24.000Z,99866
2018-07-16T16:38:24.000Z,99863
2018-07-16T16:40:24.000Z,99859
2018-07-16T16:41:24.000Z,99862
2018-07-16T16:43:24.000Z,99868
2018-07-16T16:44:24.000Z,99864
2018-07-16T16:46:24.000Z,99866
2018-07-16T16:47:24.000Z,99865
2018-07-16T16:49:08.000Z,99862
2018-07-16T16:50:24.000Z,99864
2018-07-16T16:52:08.000Z,99862
2018-07-16T16:53:24.000Z,99866
2018-07-16T16:55:08.000Z,99860
2018-07-16T16:56:24.000Z,99855
2018-07-16T16:58:24.000Z,99858
2018-07-16T17:00:24.000Z,99861
2018-07-16T17:02:24.000Z,99858
2018-07-16T17:03:24.000Z,99857
2018-07-16T17:05:24.000Z,99858
2018-07-16T17:07:08.000Z,99853
2018-07-16T17:08:24.000Z,99851
2018-07-16T17:09:24.000Z,99856
2018-07-16T17:11:24.000Z,99855
2018-07-16T17:13:24.000Z,99849
2018-07-16T17:15:24.000Z,99851
2018-07-16T17:17:24.000Z,99857
2018-07-16T17:18:24.000Z,99859
2018-07-16T17:20:24.000Z,99852
2018-07-16T17:22:09.000Z,99857
2018-07-16T17:23:24.000Z,99858
2018-07-16T17:25:24.000Z,99854
2018-07-16T17:27:24.000Z,99855
2018-07-16T17:29:24.000Z,99862
2018-07-16T17:30:24.000Z,99861
2018-07-16T17:32:09.000Z,99861
2018-07-16T17:33:24.000Z,99864
2018-07-16T17:35:24.000Z,99861
2018-07-16T17:37:24.000Z,99861
2018-07-16T17:39:24.000Z,99861
2018-07-16T17:41:24.000Z,99867
2018-07-16T17:42:24.000Z,99864
2018-07-16T17:44:24.000Z,99866
2018-07-16T17:46:09.000Z,99869
2018-07-16T17:47:24.000Z,99868
2018-07-16T17:49:24.000Z,99870
2018-07-16T17:51:09.000Z,99873
2018-07-16T17:52:24.000Z,99874
2018-07-16T17:54:24.000Z,99878
2018-07-16T17:56:24.000Z,99879
2018-07-16T17:58:24.000Z,99878
2018-07-16T18:00:24.000Z,99879
2018-07-16T18:02:24.000Z,99873
2018-07-16T18:04:24.000Z,99882
2018-07-16T18:06:24.000Z,99875
2018-07-16T18:08:09.000Z,99878
2018-07-16T18:09:24.000Z,99874
2018-07-16T18:11:24.000Z,99887
2018-07-16T18:12:24.000Z,99886
2018-07-16T18:14:24.000Z,99888
2018-07-16T18:16:24.000Z,99883
2018-07-16T18:18:24.000Z,99886
2018-07-16T18:20:24.000Z,99886
2018-07-16T18:21:24.000Z,99882
2018-07-16T18:23:24.000Z,99885
2018-07-16T18:24:24.000Z,99886
2018-07-16T18:26:24.000Z,99878
2018-07-16T18:27:24.000Z,99886
2018-07-16T18:29:24.000Z,99887
2018-07-16T18:31:24.000Z,99893
2018-07-16T18:32:24.000Z,99896
2018-07-16T18:34:24.000Z,99895
2018-07-16T18:36:24.000Z,99894
2018-07-16T18:38:24.000Z,99903
2018-07-16T18:40:24.000Z,99899
2018-07-16T18:41:24.000Z,99904
2018-07-16T18:43:24.000Z,99907
2018-07-16T18:45:09.000Z,99902
2018-07-16T18:46:24.000Z,99902
2018-07-16T18:48:24.000Z,99908
2018-07-16T18:50:24.000Z,99909
2018-07-16T18:52:24.000Z,99906
2018-07-16T18:54:09.000Z,99909
2018-07-16T18:55:24.000Z,99909
2018-07-16T18:56:24.000Z,99909
2018-07-16T18:58:24.000Z,99909
2018-07-16T18:59:24.000Z,99910
2018-07-16T19:01:24.000Z,99918
2018-07-16T19:03:24.000Z,99915
2018-07-16T19:04:24.000Z,99907
2018-07-16T19:06:09.000Z,99910
2018-07-16T19:07:24.000Z,99911
2018-07-16T19:09:24.000Z,99911
2018-07-16T19:10:24.000Z,99919
2018-07-16T19:11:24.000Z,99920
2018-07-16T19:12:24.000Z,99919
2018-07-16T19:14:24.000Z,99919
2018-07-16T19:15:24.000Z,99924
2018-07-16T19:17:24.000Z,99927
2018-07-16T19:19:09.000Z,99927
2018-07-16T19:20:24.000Z,99924
2018-07-16T19:22:24.000Z,99928
2018-07-16T19:23:24.000Z,99926
2018-07-16T19:25:24.000Z,99938
2018-07-16T19:27:24.000Z,99936
2018-07-16T19:29:24.000Z,99944
2018-07-16T19:31:24.000Z,99946
2018-07-16T19:33:24.000Z,99946
2018-07-16T19:35:24.000Z,99946
2018-07-16T19:37:24.000Z,99951
2018-07-16T19:39:24.000Z,99951
2018-07-16T19:41:09.000Z,99949
2018-07-16T19:42:24.000Z,99951
2018-07-16T19:44:24.000Z,99950
2018-07-16T19:46:24.000Z,99951
2018-07-16T19:48:09.000Z,99960
2018-07-16T19:49:24.000Z,99961
2018-07-16T19:51:09.000Z,99958
2018-07-16T19:52:24.000Z,99955
2018-07-16T19:54:24.000Z,99959
2018-07-16T19:55:24.000Z,99953
2018-07-16T19:57:24.000Z,99959
2018-07-16T19:59:24.000Z,99960
2018-07-16T20:01:09.000Z,99962
2018-07-16T20:02:24.000Z,99959
2018-07-16T20:03:24.000Z,99962
2018-07-16T20:05:24.000Z,99963
2018-07-16T20:07:09.000Z,99966
2018-07-16T20:08:24.000Z,99963
2018-07-16T20:10:24.000Z,99970
2018-07-16T20:12:24.000Z,99965
2018-07-16T20:14:24.000Z,99968
2018-07-16T20:15:24.000Z,99965
2018-07-16T20:16:24.000Z,99965
2018-07-16T20:18:09.000Z,99964
2018-07-16T20:19:24.000Z,99970
2018-07-16T20:20:24.000Z,99974
2018-07-16T20:21:24.000Z,99972
2018-07-16T20:23:24.000Z,99973